Time;durP1;ratioP1;P1;durP2;ratioP2;P2;SDS_P1;SDS_P2;PMS_P1;PMS_P2;Temp;Humidity;BMP_temperature;BMP_pressure;BME280_temperature;BME280_humidity;BME280_pressure;Samples;Min_cycle;Max_cycle;Signal;HPM_P1;HPM_P2
2022/08/06 00:02:25;;;;;;;0.00;0.00;;;18.30;99.90;17.40;96880.00;;;;5032965;28;20195;-71
2022/08/06 00:05:01;;;;;;;0.00;0.00;;;18.40;99.90;17.50;96862.00;;;;5052126;28;20240;-72
2022/08/06 00:07:33;;;;;;;0.00;0.00;;;18.40;99.90;17.20;96848.00;;;;5052213;28;20210;-73
2022/08/06 00:10:15;;;;;;;0.00;0.00;;;18.30;99.90;17.20;96874.00;;;;5046840;28;20229;-72
2022/08/06 00:12:45;;;;;;;0.00;0.00;;;18.20;99.90;17.40;96937.00;;;;5040233;28;20741;-71
2022/08/06 00:15:18;;;;;;;0.00;0.00;;;18.40;99.90;226.50;231333.00;;;;5048588;28;20195;-71
2022/08/06 00:18:06;;;;;;;0.00;0.00;;;18.50;99.90;226.50;231333.00;;;;5039642;28;20191;-70
2022/08/06 00:20:35;;;;;;;0.00;0.00;;;18.60;99.90;226.50;231333.00;;;;5052288;28;20282;-69
2022/08/06 00:23:11;;;;;;;0.00;0.00;;;18.60;99.90;226.50;231333.00;;;;5052595;28;20218;-74
2022/08/06 00:25:45;;;;;;;0.00;0.00;;;18.60;99.90;226.50;231333.00;;;;5051878;28;20190;-74
2022/08/06 00:28:22;;;;;;;0.00;0.00;;;18.60;99.90;226.50;231333.00;;;;5043361;28;20280;-74
2022/08/06 00:31:01;;;;;;;0.00;0.00;;;18.60;99.90;226.50;231333.00;;;;5040889;28;20288;-74
2022/08/06 00:33:38;;;;;;;0.00;0.00;;;18.60;99.90;226.50;231333.00;;;;5051642;28;20229;-72
2022/08/06 00:36:23;;;;;;;0.00;0.00;;;18.50;99.90;226.50;231333.00;;;;5051539;28;20226;-73
2022/08/06 00:38:58;;;;;;;0.00;0.00;;;18.50;99.90;226.50;231333.00;;;;5048355;28;20187;-74
2022/08/06 00:41:28;;;;;;;0.05;0.05;;;18.50;99.90;226.50;231333.00;;;;5039899;28;20240;-73
2022/08/06 00:44:09;;;;;;;0.10;0.10;;;18.50;99.90;226.50;231333.00;;;;5051800;28;20217;-74
2022/08/06 00:46:39;;;;;;;0.00;0.00;;;18.40;99.90;226.50;231333.00;;;;5051557;28;20198;-75
2022/08/06 00:49:07;;;;;;;0.00;0.00;;;18.30;99.90;226.50;231333.00;;;;5047902;28;20595;-74
2022/08/06 00:51:39;;;;;;;0.00;0.00;;;18.30;99.90;226.50;231333.00;;;;5043087;28;20202;-76
2022/08/06 00:54:21;;;;;;;0.00;0.00;;;18.30;99.90;226.50;231333.00;;;;5045535;28;20223;-74
2022/08/06 00:56:56;;;;;;;0.00;0.00;;;18.30;99.90;226.50;231333.00;;;;5050750;28;20205;-75
2022/08/06 00:59:26;;;;;;;0.00;0.00;;;18.30;99.90;226.50;231333.00;;;;5051464;28;20203;-75
2022/08/06 01:02:02;;;;;;;0.03;0.03;;;18.30;99.90;226.50;231333.00;;;;5049205;28;20209;-74
2022/08/06 01:04:37;;;;;;;0.00;0.00;;;18.40;99.90;226.50;231333.00;;;;5048013;28;20241;-74
2022/08/06 01:07:05;;;;;;;0.00;0.00;;;18.40;99.90;226.50;231333.00;;;;5049349;28;20568;-74
2022/08/06 01:09:38;;;;;;;0.00;0.00;;;18.50;99.90;226.50;231333.00;;;;5051246;28;20225;-74
2022/08/06 01:12:26;;;;;;;0.00;0.00;;;18.50;99.90;226.50;231333.00;;;;5051561;28;20195;-74
2022/08/06 01:15:02;;;;;;;0.00;0.00;;;18.60;99.90;226.50;231333.00;;;;5037041;28;20209;-73
2022/08/06 01:17:39;;;;;;;0.00;0.00;;;18.60;99.90;226.50;231333.00;;;;5049957;28;20662;-73
2022/08/06 01:20:30;;;;;;;0.00;0.00;;;18.60;99.90;226.50;231333.00;;;;5032228;28;20215;-74
2022/08/06 01:23:48;;;;;;;0.00;0.00;;;18.60;99.90;226.50;231333.00;;;;5046945;28;20629;-74
2022/08/06 01:26:43;;;;;;;0.00;0.00;;;18.60;99.90;226.50;231333.00;;;;5051089;28;20194;-74
2022/08/06 01:29:21;;;;;;;0.00;0.00;;;18.50;99.90;226.50;231333.00;;;;5044581;28;20206;-75
2022/08/06 01:32:02;;;;;;;0.00;0.00;;;18.40;99.90;226.50;231333.00;;;;5038351;28;20221;-75
2022/08/06 01:34:40;;;;;;;0.00;0.00;;;18.50;99.90;226.50;231333.00;;;;5046966;28;20661;-74
2022/08/06 01:37:18;;;;;;;0.00;0.00;;;18.50;99.90;226.50;231333.00;;;;5057185;28;20204;-75
2022/08/06 01:39:53;;;;;;;0.00;0.00;;;18.50;99.90;226.50;231333.00;;;;5045121;28;20195;-75
2022/08/06 01:42:33;;;;;;;0.00;0.00;;;18.50;99.90;226.50;231333.00;;;;5037478;28;20195;-74
2022/08/06 01:45:12;;;;;;;0.00;0.00;;;18.50;99.90;226.50;231333.00;;;;5054490;28;20207;-75
2022/08/06 01:47:45;;;;;;;0.10;0.10;;;18.50;99.90;226.50;231333.00;;;;5056476;28;20197;-74
2022/08/06 01:50:28;;;;;;;0.00;0.00;;;18.40;99.90;226.50;231333.00;;;;5047373;28;20206;-74
2022/08/06 01:53:00;;;;;;;0.10;0.10;;;18.30;99.90;226.50;231333.00;;;;5055103;28;20249;-72
2022/08/06 01:55:32;;;;;;;0.05;0.05;;;18.30;99.90;226.50;231333.00;;;;5059788;28;20289;-73
2022/08/06 01:58:25;;;;;;;0.10;0.10;;;18.20;99.90;226.50;231333.00;;;;5058331;28;20190;-73
2022/08/06 02:01:03;;;;;;;0.00;0.00;;;18.10;99.90;226.50;231333.00;;;;5059215;28;20631;-73
2022/08/06 02:03:36;;;;;;;0.00;0.00;;;18.10;99.90;226.50;231333.00;;;;5058594;28;20221;-74
2022/08/06 02:06:25;;;;;;;0.00;0.00;;;18.10;99.90;226.50;231333.00;;;;5053256;28;20198;-74
2022/08/06 02:09:01;;;;;;;0.10;0.10;;;18.10;99.90;226.50;231333.00;;;;5054176;28;20200;-74
2022/08/06 02:11:57;;;;;;;0.10;0.10;;;18.00;99.90;226.50;231333.00;;;;5053796;28;20236;-74
2022/08/06 02:14:40;;;;;;;0.00;0.00;;;18.00;99.90;226.50;231333.00;;;;5053765;28;20206;-73
2022/08/06 02:17:14;;;;;;;0.00;0.00;;;17.90;99.90;226.50;231333.00;;;;5054828;28;20276;-74
2022/08/06 02:19:47;;;;;;;0.10;0.10;;;17.90;99.90;226.50;231333.00;;;;5053578;28;20198;-74
2022/08/06 02:22:39;;;;;;;0.08;0.08;;;17.90;99.90;226.50;231333.00;;;;5052870;28;20673;-74
2022/08/06 02:25:14;;;;;;;0.10;0.10;;;17.90;99.90;226.50;231333.00;;;;5042819;28;20203;-73
2022/08/06 02:28:00;;;;;;;0.10;0.10;;;17.90;99.90;226.50;231333.00;;;;5056767;28;20235;-75
2022/08/06 02:30:35;;;;;;;0.00;0.00;;;17.80;99.90;226.50;231333.00;;;;5057752;28;20194;-74
2022/08/06 02:33:12;;;;;;;0.00;0.00;;;17.70;99.90;226.50;231333.00;;;;5056342;28;20242;-74
2022/08/06 02:35:51;;;;;;;0.00;0.00;;;17.70;99.90;226.50;231333.00;;;;5055322;28;20304;-74
2022/08/06 02:38:28;;;;;;;0.00;0.00;;;17.70;99.90;226.50;231333.00;;;;5053388;28;20201;-74
2022/08/06 02:41:01;;;;;;;0.00;0.00;;;17.70;99.90;226.50;231333.00;;;;5052102;28;20546;-74
2022/08/06 02:43:35;;;;;;;0.00;0.00;;;17.60;99.90;226.50;231333.00;;;;5039649;28;20210;-74
2022/08/06 02:46:12;;;;;;;0.00;0.00;;;17.60;99.90;226.50;231333.00;;;;5049386;28;20209;-74
2022/08/06 02:48:50;;;;;;;0.10;0.10;;;17.50;99.90;226.50;231333.00;;;;5045332;28;20209;-75
2022/08/06 02:51:25;;;;;;;0.00;0.00;;;17.50;99.90;226.50;231333.00;;;;5039083;28;20700;-74
2022/08/06 02:54:20;;;;;;;0.00;0.00;;;17.50;99.90;226.50;231333.00;;;;5054191;28;20598;-72
2022/08/06 02:56:59;;;;;;;0.00;0.00;;;17.50;99.90;226.50;231333.00;;;;5053470;28;20568;-74
2022/08/06 02:59:36;;;;;;;0.00;0.00;;;17.50;99.90;226.50;231333.00;;;;5058126;28;20202;-74
2022/08/06 03:02:11;;;;;;;0.00;0.00;;;17.50;99.90;226.50;231333.00;;;;5039978;28;20244;-75
2022/08/06 03:04:48;;;;;;;0.00;0.00;;;17.50;99.90;226.50;231333.00;;;;5059585;28;20226;-74
2022/08/06 03:07:29;;;;;;;0.00;0.00;;;17.40;99.90;226.50;231333.00;;;;5042005;28;20197;-72
2022/08/06 03:10:00;;;;;;;0.00;0.00;;;17.30;99.90;226.50;231333.00;;;;5035689;28;20202;-74
2022/08/06 03:12:30;;;;;;;0.00;0.00;;;17.20;99.90;226.50;231333.00;;;;5052399;28;20202;-74
2022/08/06 03:15:02;;;;;;;0.00;0.00;;;17.10;99.90;226.50;231333.00;;;;5053286;28;20301;-74
2022/08/06 03:17:41;;;;;;;0.00;0.00;;;17.10;99.90;226.50;231333.00;;;;5052980;28;20201;-74
2022/08/06 03:20:20;;;;;;;0.10;0.10;;;17.00;99.90;226.50;231333.00;;;;5044330;28;20218;-74
2022/08/06 03:22:58;;;;;;;0.03;0.03;;;17.00;99.90;226.50;231333.00;;;;5039816;28;20732;-74
2022/08/06 03:25:30;;;;;;;0.10;0.10;;;16.90;99.90;226.50;231333.00;;;;5051740;28;20202;-74
2022/08/06 03:28:00;;;;;;;0.10;0.10;;;16.90;99.90;226.50;231333.00;;;;5036038;28;20192;-74
2022/08/06 03:30:30;;;;;;;0.10;0.10;;;16.90;99.90;226.50;231333.00;;;;5053335;28;20247;-74
2022/08/06 03:33:05;;;;;;;0.10;0.10;;;16.90;99.90;226.50;231333.00;;;;5036328;28;20221;-74
2022/08/06 03:35:53;;;;;;;0.00;0.00;;;16.90;99.90;226.50;231333.00;;;;5053282;28;20226;-75
2022/08/06 03:38:24;;;;;;;0.10;0.10;;;16.90;99.90;226.50;231333.00;;;;5053423;28;20293;-73
2022/08/06 03:40:59;;;;;;;0.10;0.10;;;16.90;99.90;226.50;231333.00;;;;5053582;28;20194;-73
2022/08/06 03:43:30;;;;;;;0.10;0.10;;;16.90;99.90;226.50;231333.00;;;;5047715;28;20273;-73
2022/08/06 03:46:31;;;;;;;0.10;0.10;;;16.80;99.90;226.50;231333.00;;;;5050941;28;20268;-72
2022/08/06 03:49:03;;;;;;;0.00;0.00;;;16.80;99.90;226.50;231333.00;;;;5050795;28;20198;-74
2022/08/06 03:51:37;;;;;;;0.10;0.10;;;16.80;99.90;226.50;231333.00;;;;5051954;28;20280;-74
2022/08/06 03:54:26;;;;;;;0.10;0.10;;;16.80;99.90;226.50;231333.00;;;;5053960;28;20717;-74
2022/08/06 03:57:03;;;;;;;0.10;0.10;;;16.80;99.90;226.50;231333.00;;;;5053043;28;20232;-74
2022/08/06 03:59:42;;;;;;;0.10;0.10;;;16.90;99.90;226.50;231333.00;;;;5053403;28;20202;-74
2022/08/06 04:02:38;;;;;;;0.10;0.10;;;16.90;99.90;226.50;231333.00;;;;5037114;28;20206;-74
2022/08/06 04:05:18;;;;;;;0.10;0.10;;;16.80;99.90;226.50;231333.00;;;;5039327;28;20195;-73
2022/08/06 04:07:59;;;;;;;0.00;0.00;;;16.70;99.90;226.50;231333.00;;;;5042661;28;20248;-75
2022/08/06 04:10:38;;;;;;;0.10;0.10;;;16.70;99.90;226.50;231333.00;;;;5055024;28;20244;-74
2022/08/06 04:13:23;;;;;;;0.10;0.10;;;16.60;99.90;226.50;231333.00;;;;5056985;28;20214;-73
2022/08/06 04:16:14;;;;;;;0.10;0.10;;;16.60;99.90;226.50;231333.00;;;;5058766;28;20218;-73
2022/08/06 04:19:03;;;;;;;0.00;0.00;;;16.60;99.90;226.50;231333.00;;;;5057905;28;20606;-74
2022/08/06 04:21:36;;;;;;;0.10;0.10;;;16.60;99.90;226.50;231333.00;;;;5057368;28;20558;-73
2022/08/06 04:24:26;;;;;;;0.00;0.00;;;16.60;99.90;226.50;231333.00;;;;5055698;28;20279;-74
2022/08/06 04:27:02;;;;;;;0.10;0.10;;;16.60;99.90;226.50;231333.00;;;;5052884;28;20198;-74
2022/08/06 04:29:39;;;;;;;0.10;0.10;;;16.60;99.90;226.50;231333.00;;;;5051978;28;20202;-73
2022/08/06 04:32:27;;;;;;;0.00;0.00;;;16.60;99.90;226.50;231333.00;;;;5044688;28;20218;-76
2022/08/06 04:34:58;;;;;;;0.10;0.10;;;16.60;99.90;226.50;231333.00;;;;5051590;28;20209;-74
2022/08/06 04:37:46;;;;;;;0.10;0.10;;;16.60;99.90;226.50;231333.00;;;;5052043;28;20198;-73
2022/08/06 04:40:23;;;;;;;0.10;0.10;;;16.60;99.90;226.50;231333.00;;;;5037411;28;20302;-73
2022/08/06 04:43:02;;;;;;;0.10;0.10;;;16.50;99.90;226.50;231333.00;;;;5042750;28;20321;-74
2022/08/06 04:45:30;;;;;;;0.10;0.10;;;16.50;99.90;226.50;231333.00;;;;5050588;28;20197;-73
2022/08/06 04:48:19;;;;;;;0.10;0.10;;;16.40;99.90;226.50;231333.00;;;;5049393;28;20260;-74
2022/08/06 04:50:48;;;;;;;0.00;0.00;;;16.40;99.90;226.50;231333.00;;;;5041594;28;20199;-73
2022/08/06 04:53:22;;;;;;;0.00;0.00;;;16.50;99.90;226.50;231333.00;;;;5043874;28;20267;-75
2022/08/06 04:56:11;;;;;;;0.10;0.10;;;16.50;99.90;226.50;231333.00;;;;5049203;28;20230;-73
2022/08/06 04:58:43;;;;;;;0.10;0.10;;;16.50;99.90;226.50;231333.00;;;;5043371;28;20209;-74
2022/08/06 05:01:11;;;;;;;0.10;0.10;;;16.50;99.90;226.50;231333.00;;;;5051354;28;20198;-73
2022/08/06 05:03:39;;;;;;;0.10;0.10;;;16.50;99.90;226.50;231333.00;;;;5051732;28;20214;-74
2022/08/06 05:06:48;;;;;;;0.00;0.00;;;16.50;99.90;226.50;231333.00;;;;5050957;28;20739;-74
2022/08/06 05:09:23;;;;;;;0.10;0.10;;;16.50;99.90;226.50;231333.00;;;;5044025;28;20182;-74
2022/08/06 05:12:20;;;;;;;0.00;0.00;;;16.60;99.90;226.50;231333.00;;;;5047333;28;20251;-73
2022/08/06 05:14:55;;;;;;;0.00;0.00;;;16.60;99.90;226.50;231333.00;;;;5051307;28;20558;-74
2022/08/06 05:17:32;;;;;;;0.10;0.10;;;16.70;99.90;226.50;231333.00;;;;5050954;28;20225;-73
2022/08/06 05:20:17;;;;;;;0.00;0.00;;;16.60;99.90;226.50;231333.00;;;;5037828;28;20316;-74
2022/08/06 05:23:03;;;;;;;0.10;0.10;;;16.50;99.90;226.50;231333.00;;;;5039613;28;20218;-74
2022/08/06 05:25:48;;;;;;;0.00;0.00;;;16.50;99.90;226.50;231333.00;;;;5049063;28;20187;-73
2022/08/06 05:28:25;;;;;;;0.10;0.10;;;16.50;99.90;226.50;231333.00;;;;5041418;28;20612;-73
2022/08/06 05:30:56;;;;;;;0.05;0.05;;;16.40;99.90;226.50;231333.00;;;;5052470;28;20273;-74
2022/08/06 05:33:27;;;;;;;0.10;0.10;;;16.40;99.90;226.50;231333.00;;;;5054086;28;20218;-74
2022/08/06 05:35:58;;;;;;;0.00;0.00;;;16.40;99.90;226.50;231333.00;;;;5052239;28;20217;-73
2022/08/06 05:38:34;;;;;;;0.00;0.00;;;16.40;99.90;226.50;231333.00;;;;5050583;28;20189;-75
2022/08/06 05:41:06;;;;;;;0.10;0.10;;;16.40;99.90;226.50;231333.00;;;;5043953;28;20249;-74
2022/08/06 05:43:37;;;;;;;0.10;0.10;;;16.50;99.90;226.50;231333.00;;;;5041443;28;20589;-73
2022/08/06 05:46:30;;;;;;;0.10;0.10;;;16.50;99.90;226.50;231333.00;;;;5037301;28;20199;-73
2022/08/06 05:49:06;;;;;;;0.00;0.00;;;16.50;99.90;226.50;231333.00;;;;5059476;28;20198;-74
2022/08/06 05:52:05;;;;;;;0.10;0.10;;;16.40;99.90;226.50;231333.00;;;;5061225;28;20202;-71
2022/08/06 05:54:39;;;;;;;0.10;0.10;;;16.40;99.90;226.50;231333.00;;;;5059503;28;20214;-72
2022/08/06 05:57:16;;;;;;;0.10;0.10;;;16.50;99.90;226.50;231333.00;;;;5040803;28;20221;-73
2022/08/06 06:00:04;;;;;;;0.10;0.10;;;16.50;99.90;226.50;231333.00;;;;5055860;28;20244;-73
2022/08/06 06:02:40;;;;;;;0.00;0.00;;;16.50;99.90;226.50;231333.00;;;;5056845;28;20221;-74
2022/08/06 06:05:11;;;;;;;0.00;0.00;;;16.60;99.90;226.50;231333.00;;;;5050845;28;20665;-74
2022/08/06 06:08:00;;;;;;;0.10;0.10;;;16.60;99.90;226.50;231333.00;;;;5050465;28;20218;-73
2022/08/06 06:10:44;;;;;;;0.00;0.00;;;16.60;99.90;226.50;231333.00;;;;5051360;28;20200;-74
2022/08/06 06:13:23;;;;;;;0.10;0.10;;;16.60;99.90;226.50;231333.00;;;;5048551;28;20222;-74
2022/08/06 06:16:25;;;;;;;0.00;0.00;;;16.60;99.90;226.50;231333.00;;;;5049695;28;20252;-73
2022/08/06 06:19:14;;;;;;;0.10;0.10;;;16.60;99.90;226.50;231333.00;;;;5050796;28;20194;-74
2022/08/06 06:21:55;;;;;;;0.10;0.10;;;16.60;99.90;226.50;231333.00;;;;5050832;28;20191;-74
2022/08/06 06:24:31;;;;;;;0.00;0.00;;;16.60;99.90;226.50;231333.00;;;;5049916;28;20233;-71
2022/08/06 06:27:07;;;;;;;0.00;0.00;;;16.60;99.90;226.50;231333.00;;;;5050645;28;20685;-71
2022/08/06 06:30:04;;;;;;;0.00;0.00;;;16.60;99.90;226.50;231333.00;;;;5047889;28;20198;-71
2022/08/06 06:32:53;;;;;;;0.10;0.10;;;16.60;99.90;226.50;231333.00;;;;5040718;28;20198;-70
2022/08/06 06:35:34;;;;;;;0.00;0.00;;;16.60;99.90;226.50;231333.00;;;;5052204;28;20199;-71
2022/08/06 06:38:18;;;;;;;0.10;0.10;;;16.70;99.90;226.50;231333.00;;;;5053141;28;20214;-71
2022/08/06 06:40:59;;;;;;;0.00;0.00;;;16.80;99.90;226.50;231333.00;;;;5052573;28;20658;-71
2022/08/06 06:43:56;;;;;;;0.00;0.00;;;16.90;99.90;226.50;231333.00;;;;5044426;28;20280;-70
2022/08/06 06:46:33;;;;;;;0.10;0.10;;;17.00;99.90;226.50;231333.00;;;;5051547;28;20682;-71
2022/08/06 06:49:19;;;;;;;0.10;0.10;;;17.00;99.90;226.50;231333.00;;;;5052067;28;20206;-70
2022/08/06 06:52:15;;;;;;;0.10;0.10;;;17.00;99.90;226.50;231333.00;;;;5038752;28;20261;-70
2022/08/06 06:55:05;;;;;;;0.10;0.10;;;17.10;99.90;226.50;231333.00;;;;5049318;28;20206;-71
2022/08/06 06:57:52;;;;;;;0.03;0.03;;;17.20;99.90;226.50;231333.00;;;;5052488;28;20237;-71
2022/08/06 07:00:22;;;;;;;0.10;0.10;;;17.10;99.90;226.50;231333.00;;;;5053650;28;20276;-71
2022/08/06 07:03:13;;;;;;;0.00;0.00;;;17.10;99.90;226.50;231333.00;;;;5037973;28;20222;-71
2022/08/06 07:05:48;;;;;;;0.00;0.00;;;17.20;99.90;226.50;231333.00;;;;5050933;28;20201;-71
2022/08/06 07:08:40;;;;;;;0.10;0.10;;;17.30;99.90;226.50;231333.00;;;;5048493;28;20194;-70
2022/08/06 07:11:10;;;;;;;0.00;0.00;;;17.30;99.90;226.50;231333.00;;;;5053495;28;20198;-71
2022/08/06 07:13:41;;;;;;;0.10;0.10;;;17.40;99.90;226.50;231333.00;;;;5051656;28;20218;-71
2022/08/06 07:16:22;;;;;;;0.10;0.10;;;17.40;99.90;226.50;231333.00;;;;5046528;28;20665;-71
2022/08/06 07:19:06;;;;;;;0.10;0.10;;;17.50;99.90;226.50;231333.00;;;;5045099;28;20289;-71
2022/08/06 07:21:41;;;;;;;0.10;0.10;;;17.60;99.90;226.50;231333.00;;;;5037396;28;20241;-71
2022/08/06 07:24:23;;;;;;;0.10;0.10;;;17.70;99.90;226.50;231333.00;;;;5044333;28;20671;-72
2022/08/06 07:27:08;;;;;;;0.10;0.10;;;17.60;99.90;226.50;231333.00;;;;5052877;28;20205;-71
2022/08/06 07:29:44;;;;;;;0.00;0.00;;;17.70;99.90;226.50;231333.00;;;;5052822;28;20209;-71
2022/08/06 07:32:29;;;;;;;0.10;0.10;;;17.60;99.90;226.50;231333.00;;;;5048678;28;20186;-71
2022/08/06 07:35:00;;;;;;;0.00;0.00;;;17.60;99.90;226.50;231333.00;;;;5036538;28;20206;-71
2022/08/06 07:37:45;;;;;;;0.00;0.00;;;17.60;99.90;226.50;231333.00;;;;5062867;28;20309;-71
2022/08/06 07:40:23;;;;;;;0.10;0.10;;;17.50;99.90;226.50;231333.00;;;;5053833;28;20213;-71
2022/08/06 07:43:04;;;;;;;0.10;0.10;;;17.50;99.90;226.50;231333.00;;;;5054221;28;20226;-70
2022/08/06 07:45:51;;;;;;;0.00;0.00;;;17.60;99.90;226.50;231333.00;;;;5046657;28;20213;-70
2022/08/06 07:48:28;;;;;;;0.10;0.10;;;17.60;99.90;226.50;231333.00;;;;5050856;28;20205;-71
2022/08/06 07:51:03;;;;;;;0.00;0.00;;;17.70;99.90;226.50;231333.00;;;;5042142;28;20225;-71
2022/08/06 07:53:40;;;;;;;0.00;0.00;;;17.70;99.90;226.50;231333.00;;;;5041962;28;20302;-71
2022/08/06 07:56:27;;;;;;;0.10;0.10;;;17.90;99.90;226.50;231333.00;;;;5047427;28;20199;-71
2022/08/06 07:58:58;;;;;;;0.08;0.08;;;18.20;99.90;226.50;231333.00;;;;5051552;28;20307;-71
2022/08/06 08:01:28;;;;;;;0.03;0.03;;;18.40;99.90;226.50;231333.00;;;;5050903;28;20195;-71
2022/08/06 08:07:05;;;;;;;0.00;0.00;;;18.80;99.90;226.50;231333.00;;;;5052603;28;20202;-71
2022/08/06 08:09:37;;;;;;;0.00;0.00;;;18.90;99.90;226.50;231333.00;;;;5045246;28;20191;-71
2022/08/06 08:12:27;;;;;;;0.00;0.00;;;19.00;99.90;226.50;231333.00;;;;5043222;28;20730;-71
2022/08/06 08:15:04;;;;;;;0.00;0.00;;;18.90;99.90;226.50;231333.00;;;;5037396;28;20190;-72
2022/08/06 08:17:44;;;;;;;0.00;0.00;;;18.80;99.90;226.50;231333.00;;;;5051061;28;20225;-71
2022/08/06 08:20:14;;;;;;;0.05;0.05;;;18.80;99.90;226.50;231333.00;;;;5043482;28;20202;-71
2022/08/06 08:22:48;;;;;;;0.00;0.00;;;18.70;99.90;226.50;231333.00;;;;5051156;28;20197;-71
2022/08/06 08:25:20;;;;;;;0.00;0.00;;;18.60;99.90;226.50;231333.00;;;;5050949;28;20226;-72
2022/08/06 08:28:10;;;;;;;0.00;0.00;;;18.50;99.90;226.50;231333.00;;;;5047306;28;20253;-72
2022/08/06 08:30:43;;;;;;;0.00;0.00;;;18.40;99.90;226.50;231333.00;;;;5031819;28;20202;-71
2022/08/06 08:33:17;;;;;;;0.00;0.00;;;18.40;99.90;226.50;231333.00;;;;5043185;28;20217;-71
2022/08/06 08:35:47;;;;;;;0.00;0.00;;;18.40;99.90;226.50;231333.00;;;;5046724;28;20633;-71
2022/08/06 08:38:28;;;;;;;0.00;0.00;;;18.40;99.90;226.50;231333.00;;;;5041323;28;20213;-72
2022/08/06 08:41:03;;;;;;;0.03;0.03;;;18.40;99.90;226.50;231333.00;;;;5052150;28;20206;-72
2022/08/06 08:43:40;;;;;;;0.10;0.10;;;18.40;99.90;226.50;231333.00;;;;5051693;28;20233;-71
2022/08/06 08:46:31;;;;;;;0.10;0.10;;;18.30;99.90;226.50;231333.00;;;;5043764;28;20264;-71
2022/08/06 08:49:09;;;;;;;0.00;0.00;;;18.60;99.90;226.50;231333.00;;;;5051149;28;20240;-71
2022/08/06 08:51:47;;;;;;;0.00;0.00;;;18.70;99.90;226.50;231333.00;;;;5032055;28;20198;-71
2022/08/06 08:54:22;;;;;;;0.00;0.00;;;18.80;99.90;226.50;231333.00;;;;5042343;28;20222;-71
2022/08/06 08:56:52;;;;;;;0.00;0.00;;;18.90;99.90;226.50;231333.00;;;;5050415;28;20201;-71
2022/08/06 08:59:41;;;;;;;0.00;0.00;;;18.90;99.90;226.50;231333.00;;;;5047152;28;20254;-71
2022/08/06 09:02:28;;;;;;;0.00;0.00;;;18.90;99.90;226.50;231333.00;;;;5044930;28;20202;-71
2022/08/06 09:04:59;;;;;;;0.10;0.10;;;19.00;99.90;226.50;231333.00;;;;5049956;28;20206;-71
2022/08/06 09:07:29;;;;;;;0.00;0.00;;;19.00;99.90;226.50;231333.00;;;;5050989;28;20209;-71
2022/08/06 09:10:07;;;;;;;0.00;0.00;;;19.00;99.90;226.50;231333.00;;;;5040815;28;20214;-71
2022/08/06 09:12:41;;;;;;;0.00;0.00;;;19.10;99.90;226.50;231333.00;;;;5049020;28;20288;-71
2022/08/06 09:15:12;;;;;;;0.00;0.00;;;19.20;99.90;226.50;231333.00;;;;5046547;28;20673;-71
2022/08/06 09:17:45;;;;;;;0.00;0.00;;;19.30;99.90;226.50;231333.00;;;;5050626;28;20194;-71
2022/08/06 09:20:35;;;;;;;0.00;0.00;;;19.50;99.90;226.50;231333.00;;;;5051269;28;20199;-71
2022/08/06 09:23:04;;;;;;;0.00;0.00;;;19.70;99.90;226.50;231333.00;;;;5051017;28;20218;-71
2022/08/06 09:25:44;;;;;;;0.00;0.00;;;19.90;99.90;226.50;231333.00;;;;5039286;28;20673;-71
2022/08/06 09:28:36;;;;;;;0.00;0.00;;;20.00;99.90;226.50;231333.00;;;;5047796;28;20206;-71
2022/08/06 09:31:07;;;;;;;0.00;0.00;;;20.30;99.90;226.50;231333.00;;;;5042150;28;20195;-71
2022/08/06 09:33:58;;;;;;;0.00;0.00;;;20.60;99.90;226.50;231333.00;;;;5032230;28;20289;-71
2022/08/06 09:36:49;;;;;;;0.00;0.00;;;20.90;99.90;226.50;231333.00;;;;5045717;28;20198;-71
2022/08/06 09:39:34;;;;;;;0.00;0.00;;;21.20;99.90;226.50;231333.00;;;;5051136;28;20237;-72
2022/08/06 09:42:38;;;;;;;0.00;0.00;;;21.30;99.60;226.50;231333.00;;;;5051550;28;20186;-71
2022/08/06 09:45:11;;;;;;;0.00;0.00;;;21.40;99.60;226.50;231333.00;;;;5040555;28;20201;-72
2022/08/06 09:47:45;;;;;;;0.00;0.00;;;21.40;99.90;226.50;231333.00;;;;5045940;28;20522;-71
2022/08/06 09:50:39;;;;;;;0.00;0.00;;;21.50;99.70;226.50;231333.00;;;;5050082;28;20669;-72
2022/08/06 09:53:12;;;;;;;0.00;0.00;;;21.40;98.20;226.50;231333.00;;;;5043464;28;20222;-71
2022/08/06 09:55:45;;;;;;;0.00;0.00;;;21.40;97.80;226.50;231333.00;;;;5043153;28;20208;-71
2022/08/06 09:58:14;;;;;;;0.00;0.00;;;21.30;98.20;226.50;231333.00;;;;5045030;28;20225;-71
2022/08/06 10:00:46;;;;;;;0.00;0.00;;;21.30;98.80;226.50;231333.00;;;;5051079;28;20548;-72
2022/08/06 10:03:18;;;;;;;0.00;0.00;;;21.40;98.80;226.50;231333.00;;;;5050837;28;20218;-72
2022/08/06 10:06:10;;;;;;;0.00;0.00;;;21.60;98.90;226.50;231333.00;;;;5053040;28;20191;-72
2022/08/06 10:08:44;;;;;;;0.00;0.00;;;21.70;98.40;226.50;231333.00;;;;5054706;28;20228;-71
2022/08/06 10:11:34;;;;;;;0.00;0.00;;;21.90;97.60;226.50;231333.00;;;;5056401;28;20278;-71
2022/08/06 10:14:25;;;;;;;0.00;0.00;;;22.10;97.50;226.50;231333.00;;;;5055819;28;20271;-71
2022/08/06 10:17:10;;;;;;;0.00;0.00;;;22.30;96.90;226.50;231333.00;;;;5054127;28;20205;-71
2022/08/06 10:19:43;;;;;;;0.00;0.00;;;22.40;96.80;226.50;231333.00;;;;5054611;28;20234;-71
2022/08/06 10:22:20;;;;;;;0.00;0.00;;;22.50;95.90;226.50;231333.00;;;;5055249;28;20556;-71
2022/08/06 10:24:57;;;;;;;0.00;0.00;;;22.40;96.60;226.50;231333.00;;;;5052268;28;20222;-72
2022/08/06 10:27:32;;;;;;;0.00;0.00;;;22.50;96.60;226.50;231333.00;;;;5043211;28;20579;-71
2022/08/06 10:30:10;;;;;;;0.00;0.00;;;22.60;95.80;226.50;231333.00;;;;5049988;28;20198;-72
2022/08/06 10:32:48;;;;;;;0.00;0.00;;;22.70;95.80;226.50;231333.00;;;;5054954;28;20209;-71
2022/08/06 10:35:19;;;;;;;0.00;0.00;;;22.60;96.00;226.50;231333.00;;;;5038745;28;20198;-71
2022/08/06 10:37:58;;;;;;;0.00;0.00;;;22.40;95.70;226.50;231333.00;;;;5037859;28;20304;-72
2022/08/06 10:40:33;;;;;;;0.00;0.00;;;22.40;95.70;226.50;231333.00;;;;5053321;28;20225;-72
2022/08/06 10:43:06;;;;;;;0.00;0.00;;;22.60;95.50;226.50;231333.00;;;;5054826;28;20214;-72
2022/08/06 10:45:36;;;;;;;0.00;0.00;;;22.70;95.10;226.50;231333.00;;;;5051733;28;20225;-72
2022/08/06 10:48:19;;;;;;;0.00;0.00;;;22.60;95.40;226.50;231333.00;;;;5052745;28;20202;-72
2022/08/06 10:51:10;;;;;;;0.00;0.00;;;22.80;95.40;226.50;231333.00;;;;5054274;28;20546;-72
2022/08/06 10:53:43;;;;;;;0.00;0.00;;;23.00;94.90;226.50;231333.00;;;;5053660;28;20237;-72
2022/08/06 10:56:32;;;;;;;0.00;0.00;;;23.20;95.00;226.50;231333.00;;;;5054403;28;20191;-72
2022/08/06 10:59:14;;;;;;;0.00;0.00;;;23.50;94.70;226.50;231333.00;;;;5053873;28;20220;-73
2022/08/06 11:02:00;;;;;;;0.00;0.00;;;23.70;94.30;226.50;231333.00;;;;5054092;28;20204;-73
2022/08/06 11:04:48;;;;;;;0.00;0.00;;;23.80;93.40;226.50;231333.00;;;;5053083;28;20268;-72
2022/08/06 11:07:51;;;;;;;0.00;0.00;;;23.90;93.90;226.50;231333.00;;;;5054344;28;20191;-72
2022/08/06 11:11:07;;;;;;;0.00;0.00;;;24.00;93.80;226.50;231333.00;;;;5051812;28;20202;-72
2022/08/06 11:14:01;;;;;;;0.00;0.00;;;24.30;91.60;226.50;231333.00;;;;5053815;28;20297;-73
2022/08/06 11:16:32;;;;;;;0.00;0.00;;;24.40;90.50;226.50;231333.00;;;;5053338;28;20201;-73
2022/08/06 11:19:09;;;;;;;0.00;0.00;;;24.40;91.40;226.50;231333.00;;;;5053079;28;20214;-72
2022/08/06 11:21:42;;;;;;;0.00;0.00;;;24.40;91.50;226.50;231333.00;;;;5044542;28;20213;-73
2022/08/06 11:24:30;;;;;;;0.00;0.00;;;24.50;91.50;226.50;231333.00;;;;5048320;28;20253;-72
2022/08/06 11:27:26;;;;;;;0.00;0.00;;;24.50;91.50;226.50;231333.00;;;;5045803;28;20202;-72
2022/08/06 11:30:10;;;;;;;0.00;0.00;;;24.80;91.20;226.50;231333.00;;;;5047101;28;20190;-72
2022/08/06 11:32:50;;;;;;;0.00;0.00;;;24.80;91.30;226.50;231333.00;;;;5045863;28;20260;-72
2022/08/06 11:35:46;;;;;;;0.00;0.00;;;24.70;91.40;226.50;231333.00;;;;5037309;28;20201;-72
2022/08/06 11:39:00;;;;;;;0.00;0.00;;;24.90;90.80;226.50;231333.00;;;;5052183;28;20247;-72